Time;durP1;ratioP1;P1;durP2;ratioP2;P2;SDS_P1;SDS_P2;PMS_P1;PMS_P2;Temp;Humidity;BMP_temperature;BMP_pressure;BME280_temperature;BME280_humidity;BME280_pressure;Samples;Min_cycle;Max_cycle;Signal;HPM_P1;HPM_P2
2023/08/08 00:01:54;;;;;;;0.20;0.20;;;;;;;21.57;63.65;98428.22;4821602;29;20113;-80
2023/08/08 00:04:21;;;;;;;0.20;0.20;;;;;;;21.55;63.17;98430.47;4826890;29;20059;-80
2023/08/08 00:06:48;;;;;;;0.20;0.20;;;;;;;21.55;63.52;98424.97;4821080;29;20054;-79
2023/08/08 00:09:16;;;;;;;0.20;0.20;;;;;;;21.54;63.35;98420.59;4821004;29;20517;-79
2023/08/08 00:11:43;;;;;;;0.20;0.20;;;;;;;21.48;63.88;98410.97;4822268;29;20057;-78
2023/08/08 00:14:10;;;;;;;0.20;0.20;;;;;;;21.42;65.11;98409.53;4824461;29;20426;-79
2023/08/08 00:16:37;;;;;;;0.20;0.20;;;;;;;21.23;65.55;98396.19;4822998;29;20497;-79
2023/08/08 00:19:04;;;;;;;0.20;0.20;;;;;;;21.19;66.36;98398.81;4823678;29;20542;-80
2023/08/08 00:21:32;;;;;;;0.20;0.20;;;;;;;21.12;66.60;98401.25;4827552;29;20574;-80
2023/08/08 00:23:59;;;;;;;0.20;0.20;;;;;;;21.10;66.67;98392.53;4824137;29;20199;-79
2023/08/08 00:26:27;;;;;;;0.20;0.20;;;;;;;21.06;66.76;98375.13;4824126;29;20054;-79
2023/08/08 00:28:56;;;;;;;0.20;0.20;;;;;;;21.08;66.70;98378.34;4823684;29;20418;-79
2023/08/08 00:31:28;;;;;;;0.20;0.20;;;;;;;21.05;66.48;98380.94;4823593;29;20054;-81
2023/08/08 00:33:55;;;;;;;0.20;0.20;;;;;;;20.92;67.02;98369.06;4800820;29;20058;-82
2023/08/08 00:36:22;;;;;;;0.20;0.20;;;;;;;20.90;67.66;98368.59;4823855;29;20430;-81
2023/08/08 00:38:49;;;;;;;0.20;0.20;;;;;;;20.85;67.88;98357.78;4823680;29;20050;-80
2023/08/08 00:41:19;;;;;;;0.20;0.20;;;;;;;20.84;67.66;98347.94;4822151;29;20051;-80
2023/08/08 00:43:46;;;;;;;0.20;0.20;;;;;;;20.81;67.95;98345.84;4823441;29;20601;-78
2023/08/08 00:46:15;;;;;;;0.20;0.20;;;;;;;20.78;67.43;98350.06;4821016;29;20062;-80
2023/08/08 00:48:42;;;;;;;0.20;0.20;;;;;;;20.82;67.43;98362.00;4822248;29;20054;-81
2023/08/08 00:51:09;;;;;;;0.20;0.20;;;;;;;20.87;67.32;98377.47;4823241;29;20051;-81
2023/08/08 00:53:36;;;;;;;0.20;0.20;;;;;;;20.83;66.94;98365.53;4807197;29;20141;-80
2023/08/08 00:56:04;;;;;;;0.20;0.20;;;;;;;20.80;66.57;98382.66;4822096;29;20059;-80
2023/08/08 00:58:31;;;;;;;0.20;0.20;;;;;;;20.73;66.59;98372.16;4821482;29;20054;-79
2023/08/08 01:00:59;;;;;;;0.20;0.20;;;;;;;20.76;66.56;98383.31;4823062;29;20087;-80
2023/08/08 01:03:30;;;;;;;0.20;0.20;;;;;;;20.74;66.52;98347.19;4823103;29;20407;-80
2023/08/08 01:06:36;;;;;;;0.20;0.20;;;;;;;20.74;66.45;98363.63;4807484;29;20141;-80
2023/08/08 01:09:20;;;;;;;0.20;0.20;;;;;;;20.73;66.57;98372.97;4823542;29;20054;-80
2023/08/08 01:11:49;;;;;;;0.20;0.20;;;;;;;20.64;66.15;98363.19;4823619;29;20061;-80
2023/08/08 01:14:18;;;;;;;0.28;0.28;;;;;;;20.65;66.57;98348.34;4822529;29;20070;-79
2023/08/08 01:16:46;;;;;;;0.30;0.30;;;;;;;20.71;66.10;98350.59;4807691;29;20053;-80
2023/08/08 01:19:24;;;;;;;0.20;0.20;;;;;;;20.71;66.20;98347.84;4823324;29;20046;-79
2023/08/08 01:21:53;;;;;;;0.20;0.20;;;;;;;20.71;66.35;98347.00;4823248;29;20054;-81
2023/08/08 01:24:29;;;;;;;0.20;0.20;;;;;;;20.66;66.06;98353.50;4823361;29;20528;-80
2023/08/08 01:26:59;;;;;;;0.20;0.20;;;;;;;20.62;66.05;98346.25;4808368;29;20078;-79
2023/08/08 01:29:28;;;;;;;0.20;0.20;;;;;;;20.58;66.41;98348.81;4823048;29;20054;-78
2023/08/08 01:31:56;;;;;;;0.20;0.20;;;;;;;20.53;66.55;98346.22;4823168;29;20058;-78
2023/08/08 01:34:28;;;;;;;0.20;0.20;;;;;;;20.52;66.19;98352.84;4823009;29;20054;-79
2023/08/08 01:37:11;;;;;;;0.20;0.20;;;;;;;20.51;66.87;98345.78;4823793;29;20078;-79
2023/08/08 01:39:40;;;;;;;0.22;0.22;;;;;;;20.43;66.95;98346.56;4807419;29;20054;-79
2023/08/08 01:42:08;;;;;;;0.20;0.20;;;;;;;20.41;67.22;98348.81;4806706;29;20058;-81
2023/08/08 01:44:36;;;;;;;0.20;0.20;;;;;;;20.35;67.23;98350.94;4822907;29;20081;-80
2023/08/08 01:47:03;;;;;;;0.20;0.20;;;;;;;20.32;67.35;98346.91;4813048;29;20053;-80
2023/08/08 01:49:30;;;;;;;0.20;0.20;;;;;;;20.29;67.62;98349.50;4841204;29;20133;-79
2023/08/08 01:51:58;;;;;;;0.30;0.30;;;;;;;20.26;67.50;98352.91;4841157;29;20061;-78
2023/08/08 01:54:28;;;;;;;0.30;0.30;;;;;;;20.26;67.84;98353.69;4841367;29;20065;-81
2023/08/08 01:56:56;;;;;;;0.20;0.20;;;;;;;20.22;67.72;98358.22;4841228;29;20049;-80
2023/08/08 01:59:23;;;;;;;0.20;0.20;;;;;;;20.26;67.72;98358.38;4837739;29;20602;-80
2023/08/08 02:02:01;;;;;;;0.20;0.20;;;;;;;20.21;67.97;98356.59;4806460;29;20054;-79
2023/08/08 02:04:31;;;;;;;0.20;0.20;;;;;;;20.16;68.36;98361.44;4806187;29;20526;-79
2023/08/08 02:06:59;;;;;;;0.20;0.20;;;;;;;20.14;68.54;98361.75;4821748;29;20050;-79
2023/08/08 02:09:28;;;;;;;0.30;0.30;;;;;;;20.13;68.33;98354.69;4822611;29;20053;-80
2023/08/08 02:11:55;;;;;;;0.30;0.30;;;;;;;20.18;68.25;98368.22;4821597;29;20078;-81
2023/08/08 02:14:23;;;;;;;0.20;0.20;;;;;;;20.14;68.33;98348.06;4822565;29;20058;-80
2023/08/08 02:16:50;;;;;;;0.20;0.20;;;;;;;20.20;68.29;98354.19;4817184;29;20173;-81
2023/08/08 02:19:17;;;;;;;0.20;0.20;;;;;;;20.21;68.42;98366.75;4801841;29;20058;-80
2023/08/08 02:21:45;;;;;;;0.20;0.20;;;;;;;20.21;68.44;98355.81;4804837;29;20062;-79
2023/08/08 02:24:13;;;;;;;0.20;0.20;;;;;;;20.16;68.56;98364.19;4804979;29;20539;-80
2023/08/08 02:26:41;;;;;;;0.20;0.20;;;;;;;20.10;68.50;98353.41;4788549;29;20424;-80
2023/08/08 02:29:09;;;;;;;0.20;0.20;;;;;;;20.12;68.89;98359.34;4804416;29;20058;-79
2023/08/08 02:31:36;;;;;;;0.30;0.30;;;;;;;20.14;69.00;98367.25;4787784;29;20426;-79
2023/08/08 02:34:03;;;;;;;0.30;0.30;;;;;;;20.08;69.38;98369.34;4806926;29;20050;-80
2023/08/08 02:36:31;;;;;;;0.30;0.30;;;;;;;19.98;69.91;98368.84;4819484;29;20051;-81
2023/08/08 02:38:58;;;;;;;0.30;0.30;;;;;;;19.92;70.41;98366.25;4818860;29;20059;-80
2023/08/08 02:41:25;;;;;;;0.20;0.20;;;;;;;19.83;70.64;98359.19;4809677;29;20073;-80
2023/08/08 02:43:53;;;;;;;0.30;0.30;;;;;;;19.89;70.78;98366.91;4803409;29;20427;-80
2023/08/08 02:46:22;;;;;;;0.20;0.20;;;;;;;19.88;70.81;98365.31;4804518;29;20150;-79
2023/08/08 02:48:50;;;;;;;0.30;0.30;;;;;;;19.82;71.05;98377.53;4804727;29;20047;-81
2023/08/08 02:51:17;;;;;;;0.30;0.30;;;;;;;19.79;71.31;98380.91;4787602;29;20196;-81
2023/08/08 02:53:47;;;;;;;0.25;0.25;;;;;;;19.75;71.32;98365.44;4787690;29;20055;-79
2023/08/08 02:56:17;;;;;;;0.30;0.30;;;;;;;19.74;71.19;98381.06;4802911;29;20051;-80
2023/08/08 02:58:44;;;;;;;0.28;0.28;;;;;;;19.73;71.28;98382.22;4787454;29;20058;-81
2023/08/08 03:01:14;;;;;;;0.30;0.30;;;;;;;19.72;71.31;98366.88;4799694;29;20430;-80
2023/08/08 03:03:43;;;;;;;0.30;0.30;;;;;;;19.77;71.10;98374.94;4804727;29;20054;-81
2023/08/08 03:06:11;;;;;;;0.30;0.30;;;;;;;19.77;71.29;98385.91;4818848;29;20427;-80
2023/08/08 03:08:39;;;;;;;0.30;0.30;;;;;;;19.78;71.23;98389.47;4817546;29;20559;-81
2023/08/08 03:11:07;;;;;;;0.30;0.30;;;;;;;19.84;71.24;98379.97;4817580;29;20061;-80
2023/08/08 03:13:34;;;;;;;0.20;0.20;;;;;;;19.88;70.76;98376.25;4803369;29;20054;-80
2023/08/08 03:16:01;;;;;;;0.30;0.30;;;;;;;20.14;70.32;98381.75;4787664;29;20051;-82
2023/08/08 03:18:28;;;;;;;0.30;0.30;;;;;;;20.25;69.75;98387.69;4803775;29;20062;-80
2023/08/08 03:20:56;;;;;;;0.20;0.20;;;;;;;20.30;69.42;98387.53;4802698;29;20055;-80
2023/08/08 03:23:23;;;;;;;0.30;0.30;;;;;;;20.25;69.36;98382.22;4787421;29;20425;-79
2023/08/08 03:25:57;;;;;;;0.20;0.20;;;;;;;20.26;69.50;98389.31;4809226;29;20061;-80
2023/08/08 03:28:27;;;;;;;0.20;0.20;;;;;;;20.31;69.44;98391.88;4815408;29;20419;-81
2023/08/08 03:30:56;;;;;;;0.30;0.30;;;;;;;20.24;69.40;98388.81;4818276;29;20066;-80
2023/08/08 03:33:24;;;;;;;0.20;0.20;;;;;;;20.28;69.30;98384.31;4792270;29;20055;-79
2023/08/08 03:35:51;;;;;;;0.30;0.30;;;;;;;20.23;69.02;98381.75;4804728;29;20059;-80
2023/08/08 03:38:21;;;;;;;0.30;0.30;;;;;;;20.26;69.05;98381.09;4802640;29;20051;-82
2023/08/08 03:40:51;;;;;;;0.22;0.22;;;;;;;20.27;69.20;98390.91;4800686;29;20114;-83
2023/08/08 03:43:18;;;;;;;0.30;0.30;;;;;;;20.32;69.30;98390.75;4799146;29;20058;-81
2023/08/08 03:45:47;;;;;;;0.30;0.30;;;;;;;20.35;69.53;98400.25;4804673;29;20088;-80
2023/08/08 03:48:14;;;;;;;0.30;0.30;;;;;;;20.35;69.22;98400.25;4805691;29;20057;-79
2023/08/08 03:50:41;;;;;;;0.30;0.30;;;;;;;20.30;69.28;98408.66;4790321;29;20109;-80
2023/08/08 03:53:11;;;;;;;0.20;0.20;;;;;;;20.29;69.42;98410.59;4805630;29;20051;-81
2023/08/08 03:55:39;;;;;;;0.20;0.20;;;;;;;20.40;69.51;98410.25;4806377;29;20065;-80
2023/08/08 03:58:10;;;;;;;0.20;0.20;;;;;;;20.42;69.46;98418.97;4790720;29;20055;-81
2023/08/08 04:00:45;;;;;;;0.20;0.20;;;;;;;20.35;69.58;98411.22;4817129;29;20066;-81
2023/08/08 04:03:16;;;;;;;;;;;;;;;20.27;69.63;98425.72;4823922;29;20050;-79
2023/08/08 04:05:47;;;;;;;0.20;0.20;;;;;;;20.23;70.40;98414.63;4808483;29;19993;-81
2023/08/08 04:08:17;;;;;;;0.22;0.22;;;;;;;20.24;70.71;98416.22;4824017;29;20081;-80
2023/08/08 04:10:47;;;;;;;0.22;0.22;;;;;;;20.23;70.33;98414.63;4824067;29;20078;-78
2023/08/08 04:13:14;;;;;;;0.20;0.20;;;;;;;20.28;70.33;98419.94;4822103;29;20105;-80
2023/08/08 04:15:41;;;;;;;0.30;0.30;;;;;;;20.33;70.47;98416.22;4823129;29;20580;-79
2023/08/08 04:18:12;;;;;;;0.30;0.30;;;;;;;20.40;70.64;98424.75;4824158;29;20449;-80
2023/08/08 04:20:40;;;;;;;0.30;0.30;;;;;;;20.42;70.50;98425.25;4824533;29;20504;-82
2023/08/08 04:23:10;;;;;;;0.30;0.30;;;;;;;20.44;70.16;98413.97;4856722;23;20060;-85
2023/08/08 04:25:38;;;;;;;0.20;0.20;;;;;;;20.50;69.73;98423.63;4862339;29;20049;-82
2023/08/08 04:28:08;;;;;;;0.30;0.30;;;;;;;20.50;69.58;98421.69;4881238;29;20501;-81
2023/08/08 04:30:38;;;;;;;0.30;0.30;;;;;;;20.51;69.67;98414.28;4862649;29;20049;-83
2023/08/08 04:33:06;;;;;;;0.28;0.28;;;;;;;20.53;69.63;98421.06;4879973;29;20481;-83
2023/08/08 04:35:33;;;;;;;0.30;0.30;;;;;;;20.49;69.86;98411.06;4879688;29;20500;-81
2023/08/08 04:38:00;;;;;;;0.20;0.20;;;;;;;20.50;69.87;98423.63;4862968;29;20649;-82
2023/08/08 04:40:27;;;;;;;0.20;0.20;;;;;;;20.56;69.91;98430.59;4879711;29;20057;-82
2023/08/08 04:42:56;;;;;;;0.30;0.30;;;;;;;20.59;70.71;98424.47;4858204;29;20058;-81
2023/08/08 04:45:23;;;;;;;0.20;0.20;;;;;;;20.53;70.20;98420.22;4864920;29;21146;-81
2023/08/08 04:47:50;;;;;;;0.20;0.20;;;;;;;20.55;69.90;98415.25;4869883;29;20094;-83
2023/08/08 04:50:18;;;;;;;0.30;0.30;;;;;;;20.45;70.79;98424.59;4850029;29;20532;-82
2023/08/08 04:52:46;;;;;;;0.30;0.30;;;;;;;20.43;71.63;98431.53;4842155;29;20546;-81
2023/08/08 04:55:14;;;;;;;0.30;0.30;;;;;;;20.50;70.84;98429.09;4845418;29;20141;-82
2023/08/08 04:57:41;;;;;;;0.30;0.30;;;;;;;20.42;71.09;98425.25;4847373;29;20049;-83
2023/08/08 05:00:09;;;;;;;0.30;0.30;;;;;;;20.44;71.09;98425.72;4858246;29;20889;-81
2023/08/08 05:02:39;;;;;;;0.30;0.30;;;;;;;20.43;71.15;98432.31;4854380;29;20057;-82
2023/08/08 05:05:07;;;;;;;0.30;0.30;;;;;;;20.38;71.33;98429.75;4861299;29;20090;-82
2023/08/08 05:07:37;;;;;;;0.30;0.30;;;;;;;20.39;71.78;98438.81;4858729;29;20057;-83
2023/08/08 05:10:06;;;;;;;0.30;0.30;;;;;;;20.47;71.16;98435.25;4849020;29;20056;-81
2023/08/08 05:12:38;;;;;;;0.30;0.30;;;;;;;20.64;70.26;98435.25;4825643;29;20708;-80
2023/08/08 05:15:07;;;;;;;0.30;0.30;;;;;;;20.78;69.57;98437.81;4848267;29;20626;-81
2023/08/08 05:17:35;;;;;;;0.30;0.30;;;;;;;20.89;69.34;98451.97;4815472;29;20053;-80
2023/08/08 05:20:04;;;;;;;0.30;0.30;;;;;;;20.96;68.81;98433.91;4849825;29;20081;-81
2023/08/08 05:22:38;;;;;;;0.30;0.30;;;;;;;21.19;68.41;98436.38;4850153;29;20053;-79
2023/08/08 05:25:06;;;;;;;0.30;0.30;;;;;;;21.29;68.34;98444.25;4853242;29;20057;-77
2023/08/08 05:27:33;;;;;;;0.20;0.20;;;;;;;21.16;68.30;98446.09;4856818;29;20061;-81
2023/08/08 05:30:00;;;;;;;0.30;0.30;;;;;;;21.24;68.02;98435.41;4839079;29;20061;-81
2023/08/08 05:32:31;;;;;;;0.30;0.30;;;;;;;21.15;68.10;98444.50;4833301;29;20050;-80
2023/08/08 05:35:00;;;;;;;0.30;0.30;;;;;;;21.13;68.42;98445.94;4847039;29;20065;-81
2023/08/08 05:37:33;;;;;;;0.30;0.30;;;;;;;21.05;67.72;98444.03;4829488;29;20806;-81
2023/08/08 05:40:06;;;;;;;0.30;0.30;;;;;;;21.13;67.67;98451.44;4849828;29;20144;-80
2023/08/08 05:42:33;;;;;;;0.30;0.30;;;;;;;21.10;67.77;98452.91;4852017;29;20053;-79
2023/08/08 05:45:00;;;;;;;0.30;0.30;;;;;;;21.07;68.28;98448.06;4847312;29;20072;-80
2023/08/08 05:47:32;;;;;;;0.30;0.30;;;;;;;21.13;68.11;98434.97;4846094;29;20144;-80
2023/08/08 05:50:03;;;;;;;0.30;0.30;;;;;;;21.27;67.92;98442.97;4813713;29;20118;-80
2023/08/08 05:52:31;;;;;;;0.30;0.30;;;;;;;21.28;67.26;98439.13;4852230;29;20584;-81
2023/08/08 05:55:01;;;;;;;0.30;0.30;;;;;;;21.45;66.96;98444.56;4853763;29;20518;-80
2023/08/08 05:57:30;;;;;;;0.20;0.20;;;;;;;21.53;66.73;98449.22;4851061;29;20049;-80
2023/08/08 05:59:58;;;;;;;0.30;0.30;;;;;;;21.58;67.02;98446.28;4819375;29;20081;-79
2023/08/08 06:02:40;;;;;;;0.30;0.30;;;;;;;21.72;66.75;98456.22;4831852;29;20446;-81
2023/08/08 06:05:11;;;;;;;0.30;0.30;;;;;;;21.88;66.11;98443.53;4847661;29;20413;-82
2023/08/08 06:07:39;;;;;;;0.30;0.30;;;;;;;22.10;65.38;98444.34;4510613;29;10000537;-82
2023/08/08 06:10:08;;;;;;;0.30;0.30;;;;;;;22.39;64.68;98449.81;4854003;29;20085;-82
2023/08/08 06:12:35;;;;;;;0.30;0.30;;;;;;;22.67;63.67;98447.28;4829833;29;20052;-81
2023/08/08 06:15:06;;;;;;;0.30;0.30;;;;;;;22.78;62.83;98447.66;4840871;29;20050;-81
2023/08/08 06:17:36;;;;;;;0.30;0.30;;;;;;;23.01;62.20;98444.56;4808721;29;20594;-80
2023/08/08 06:20:04;;;;;;;0.30;0.30;;;;;;;23.08;61.66;98453.06;4840418;29;20537;-81
2023/08/08 06:22:32;;;;;;;0.30;0.30;;;;;;;23.25;61.40;98454.81;4846447;29;20054;-80
2023/08/08 06:24:59;;;;;;;0.30;0.30;;;;;;;23.58;60.14;98454.75;4858610;29;20057;-81
2023/08/08 06:27:26;;;;;;;0.30;0.30;;;;;;;23.53;59.86;98458.53;4858404;29;20055;-81
2023/08/08 06:29:53;;;;;;;0.30;0.30;;;;;;;23.70;59.59;98453.91;4859026;29;20057;-82
2023/08/08 06:32:25;;;;;;;0.30;0.30;;;;;;;23.98;59.08;98454.06;4858543;29;20057;-81
2023/08/08 06:34:58;;;;;;;0.25;0.25;;;;;;;23.76;58.48;98464.41;4858838;29;20054;-81
2023/08/08 06:37:26;;;;;;;0.20;0.20;;;;;;;23.50;59.09;98458.41;4858065;29;20053;-83
2023/08/08 06:39:56;;;;;;;0.20;0.20;;;;;;;23.54;59.89;98460.13;4858779;29;20061;-80
2023/08/08 06:42:24;;;;;;;0.30;0.30;;;;;;;23.59;59.26;98464.59;4858474;29;20077;-82
2023/08/08 06:44:56;;;;;;;0.20;0.20;;;;;;;23.59;59.38;98457.13;4842186;29;20053;-81
2023/08/08 06:47:28;;;;;;;0.30;0.30;;;;;;;23.62;59.56;98460.34;4858492;29;20061;-81
2023/08/08 06:49:57;;;;;;;0.20;0.20;;;;;;;24.00;59.18;98454.50;4842114;29;20057;-81
2023/08/08 06:52:25;;;;;;;0.30;0.30;;;;;;;24.32;58.10;98457.44;4858214;29;20110;-81
2023/08/08 06:54:52;;;;;;;0.30;0.30;;;;;;;24.76;57.11;98463.03;4858103;29;20106;-81
2023/08/08 06:57:19;;;;;;;0.30;0.30;;;;;;;24.82;56.42;98453.38;4858481;29;20060;-81
2023/08/08 06:59:50;;;;;;;0.30;0.30;;;;;;;25.05;56.07;98459.91;4857385;29;20105;-81
2023/08/08 07:02:20;;;;;;;0.20;0.20;;;;;;;25.13;55.93;98474.69;4838925;29;20062;-81
2023/08/08 07:04:50;;;;;;;0.20;0.20;;;;;;;24.96;55.80;98475.81;4840260;29;20145;-81
2023/08/08 07:07:18;;;;;;;0.20;0.20;;;;;;;24.72;56.55;98485.03;4840283;29;20462;-81
2023/08/08 07:09:45;;;;;;;0.20;0.20;;;;;;;24.73;56.82;98483.84;4839756;29;20110;-81
2023/08/08 07:12:12;;;;;;;0.20;0.20;;;;;;;24.63;56.55;98482.41;4828299;29;20054;-82
2023/08/08 07:14:40;;;;;;;0.20;0.20;;;;;;;24.35;57.11;98481.53;4847290;29;20058;-79
2023/08/08 07:17:07;;;;;;;0.28;0.28;;;;;;;24.38;57.58;98480.84;4852176;29;20061;-84
2023/08/08 07:19:36;;;;;;;0.20;0.20;;;;;;;24.40;57.45;98482.09;4843188;29;20395;-82
2023/08/08 07:22:03;;;;;;;0.22;0.22;;;;;;;24.46;57.56;98468.91;4852264;29;20081;-82
2023/08/08 07:24:31;;;;;;;0.20;0.20;;;;;;;24.78;56.55;98469.81;4824558;29;20108;-83
2023/08/08 07:26:59;;;;;;;0.20;0.20;;;;;;;24.93;56.06;98461.94;4823812;29;20144;-83
2023/08/08 07:29:28;;;;;;;0.30;0.30;;;;;;;25.14;55.28;98469.97;4814412;29;20097;-82
2023/08/08 07:31:55;;;;;;;0.30;0.30;;;;;;;25.29;54.96;98471.97;4805461;29;20054;-82
2023/08/08 07:34:22;;;;;;;0.30;0.30;;;;;;;25.25;55.03;98466.38;4824473;29;20145;-82
2023/08/08 07:36:50;;;;;;;0.20;0.20;;;;;;;25.28;55.22;98478.66;4807790;29;20046;-82
2023/08/08 07:39:17;;;;;;;0.20;0.20;;;;;;;25.22;55.38;98480.91;4817470;29;20508;-83
2023/08/08 07:41:45;;;;;;;0.20;0.20;;;;;;;25.11;56.10;98490.81;4797513;29;20407;-82
2023/08/08 07:44:12;;;;;;;0.20;0.20;;;;;;;25.21;55.68;98482.03;4806743;29;20108;-82
2023/08/08 07:46:39;;;;;;;0.20;0.20;;;;;;;25.11;56.74;98499.09;4816010;29;20058;-81
2023/08/08 07:49:09;;;;;;;0.20;0.20;;;;;;;25.03;56.33;98500.84;4815589;29;20062;-81
2023/08/08 07:51:36;;;;;;;0.20;0.20;;;;;;;24.74;57.03;98503.97;4817124;29;20056;-82
2023/08/08 07:54:08;;;;;;;0.20;0.20;;;;;;;24.58;57.29;98503.91;4782915;29;20062;-82
2023/08/08 07:56:35;;;;;;;0.20;0.20;;;;;;;24.58;57.28;98490.91;4808987;29;20501;-82
2023/08/08 07:59:05;;;;;;;0.20;0.20;;;;;;;24.74;57.23;98493.75;4813618;29;20427;-81
2023/08/08 08:01:33;;;;;;;0.25;0.25;;;;;;;25.10;56.43;98491.97;4818082;29;20054;-81
2023/08/08 08:04:02;;;;;;;0.30;0.30;;;;;;;25.80;54.14;98504.41;4819463;29;20058;-82
2023/08/08 08:06:30;;;;;;;0.25;0.25;;;;;;;25.72;54.60;98500.66;4814891;29;20054;-81
2023/08/08 08:09:01;;;;;;;0.30;0.30;;;;;;;25.76;54.34;98500.78;4834067;29;20153;-81
2023/08/08 08:11:32;;;;;;;0.30;0.30;;;;;;;26.10;53.98;98502.00;4820557;29;20580;-81
2023/08/08 08:14:03;;;;;;;0.30;0.30;;;;;;;26.43;52.69;98503.50;4802215;29;20502;-81
2023/08/08 08:16:32;;;;;;;0.20;0.20;;;;;;;26.70;52.15;98499.78;4819972;29;20057;-81
2023/08/08 08:19:01;;;;;;;0.28;0.28;;;;;;;26.41;52.50;98508.59;4815057;29;20059;-83
2023/08/08 08:21:31;;;;;;;0.20;0.20;;;;;;;26.58;52.80;98502.69;4820198;29;20151;-82
2023/08/08 08:23:59;;;;;;;0.30;0.30;;;;;;;27.05;51.64;98498.09;4821468;29;20058;-80
2023/08/08 08:26:28;;;;;;;0.30;0.30;;;;;;;27.18;51.05;98503.13;4823926;29;20081;-82
2023/08/08 08:28:55;;;;;;;0.30;0.30;;;;;;;26.99;51.24;98492.84;4823565;29;20187;-82
2023/08/08 08:31:50;;;;;;;0.30;0.30;;;;;;;27.42;50.29;98496.44;4823218;29;20047;-83
2023/08/08 08:34:17;;;;;;;0.30;0.30;;;;;;;27.65;49.77;98506.72;4824763;29;20065;-83
2023/08/08 08:36:45;;;;;;;0.20;0.20;;;;;;;28.16;48.71;98500.81;4825263;29;20108;-82
2023/08/08 08:39:12;;;;;;;0.20;0.20;;;;;;;28.05;48.88;98519.25;4824207;29;20055;-83
2023/08/08 08:41:42;;;;;;;0.20;0.20;;;;;;;27.45;50.16;98511.53;4830774;29;20050;-82
2023/08/08 08:44:10;;;;;;;0.20;0.20;;;;;;;27.08;51.25;98519.50;4854106;29;20062;-82
2023/08/08 08:46:38;;;;;;;0.20;0.20;;;;;;;26.35;52.72;98511.66;4856060;29;20054;-82
2023/08/08 08:49:08;;;;;;;0.20;0.20;;;;;;;26.13;53.82;98512.31;4852968;29;20077;-81
2023/08/08 08:51:36;;;;;;;0.20;0.20;;;;;;;26.35;53.30;98510.84;4833412;29;20598;-81
2023/08/08 08:54:05;;;;;;;0.20;0.20;;;;;;;26.92;51.70;98514.06;4841123;29;20054;-82
2023/08/08 08:56:34;;;;;;;0.20;0.20;;;;;;;26.96;51.31;98512.94;4840366;29;20062;-82
2023/08/08 08:59:02;;;;;;;0.20;0.20;;;;;;;27.01;51.46;98515.41;4841803;29;20050;-81
2023/08/08 09:01:32;;;;;;;0.20;0.20;;;;;;;26.97;51.99;98509.03;4842105;29;20133;-83
2023/08/08 09:04:03;;;;;;;0.20;0.20;;;;;;;26.99;52.19;98512.22;4810893;29;20560;-82
2023/08/08 09:06:31;;;;;;;0.20;0.20;;;;;;;27.47;50.95;98506.38;4841724;29;20057;-81
2023/08/08 09:09:01;;;;;;;0.20;0.20;;;;;;;27.65;49.95;98507.53;4841064;29;20053;-81
2023/08/08 09:11:50;;;;;;;0.30;0.30;;;;;;;27.94;50.30;98515.53;4841983;29;20054;-82
2023/08/08 09:14:22;;;;;;;0.30;0.30;;;;;;;28.44;48.18;98503.22;4842170;29;20049;-81
2023/08/08 09:16:56;;;;;;;0.20;0.20;;;;;;;28.78;47.69;98510.75;4844149;29;20058;-82
2023/08/08 09:19:25;;;;;;;0.20;0.20;;;;;;;28.81;47.60;98521.09;4841653;29;20413;-83
2023/08/08 09:22:03;;;;;;;0.20;0.20;;;;;;;28.85;47.72;98513.63;4841941;29;20443;-83
2023/08/08 09:24:30;;;;;;;0.20;0.20;;;;;;;29.08;47.24;98524.63;4857367;29;20054;-81
2023/08/08 09:26:58;;;;;;;0.20;0.20;;;;;;;28.82;47.51;98520.75;4856018;29;20421;-81
2023/08/08 09:29:25;;;;;;;0.20;0.20;;;;;;;28.93;47.21;98515.31;4857935;29;20117;-81
2023/08/08 09:31:53;;;;;;;0.20;0.20;;;;;;;28.77;47.59;98523.84;4857215;29;20058;-81
2023/08/08 09:34:25;;;;;;;0.20;0.20;;;;;;;28.48;47.99;98523.47;4835581;29;20061;-81
2023/08/08 09:36:54;;;;;;;0.20;0.20;;;;;;;27.92;49.44;98528.94;4829126;29;20058;-81
2023/08/08 09:39:22;;;;;;;0.20;0.20;;;;;;;27.66;49.85;98536.03;4853568;29;20054;-79
2023/08/08 09:41:49;;;;;;;0.20;0.20;;;;;;;27.45;50.36;98528.16;4525622;29;9999834;-80
2023/08/08 09:44:17;;;;;;;0.20;0.20;;;;;;;27.53;49.87;98521.56;4862590;29;20053;-80
2023/08/08 09:46:44;;;;;;;0.20;0.20;;;;;;;27.40;50.94;98532.03;4824476;29;20053;-80
2023/08/08 09:49:13;;;;;;;0.20;0.20;;;;;;;27.32;51.06;98529.47;4850262;29;20057;-80
2023/08/08 09:51:41;;;;;;;0.20;0.20;;;;;;;27.22;51.78;98525.34;4834874;29;20177;-81
2023/08/08 09:54:10;;;;;;;0.20;0.20;;;;;;;27.11;51.80;98529.84;4831250;29;20060;-81
2023/08/08 09:56:39;;;;;;;0.20;0.20;;;;;;;27.00;52.70;98535.19;4847642;29;20092;-81
2023/08/08 09:59:07;;;;;;;0.20;0.20;;;;;;;27.02;52.23;98532.84;4829615;29;20054;-81
2023/08/08 10:01:35;;;;;;;0.20;0.20;;;;;;;27.12;52.48;98534.19;4847084;29;20053;-82
2023/08/08 10:04:06;;;;;;;0.20;0.20;;;;;;;27.20;52.55;98534.03;4847290;29;20056;-80
2023/08/08 10:06:33;;;;;;;0.20;0.20;;;;;;;27.42;51.90;98537.19;4843868;29;20443;-82
2023/08/08 10:09:03;;;;;;;0.20;0.20;;;;;;;27.49;51.38;98530.97;4849915;29;20077;-81
2023/08/08 10:11:32;;;;;;;0.20;0.20;;;;;;;27.49;51.83;98523.44;4814369;29;20054;-81
2023/08/08 10:14:02;;;;;;;0.20;0.20;;;;;;;27.61;52.08;98528.81;4829992;29;20054;-81
2023/08/08 10:16:33;;;;;;;0.20;0.20;;;;;;;27.75;51.19;98528.28;4836872;29;20069;-83
2023/08/08 10:19:05;;;;;;;0.20;0.20;;;;;;;27.78;51.02;98532.28;4843240;29;20512;-81
2023/08/08 10:21:37;;;;;;;0.20;0.20;;;;;;;27.67;50.69;98534.84;4839024;29;20144;-80
2023/08/08 10:24:09;;;;;;;0.20;0.20;;;;;;;27.67;51.22;98529.31;4839986;29;20061;-81
2023/08/08 10:27:01;;;;;;;0.13;0.13;;;;;;;27.42;52.02;98540.78;4835675;29;20733;-83
2023/08/08 10:29:31;;;;;;;0.20;0.20;;;;;;;27.13;52.28;98544.94;4833934;29;20072;-82
2023/08/08 10:32:07;;;;;;;0.20;0.20;;;;;;;26.82;52.79;98545.09;4845672;29;20518;-82
2023/08/08 10:34:44;;;;;;;0.10;0.10;;;;;;;26.52;53.99;98540.09;4845617;29;20833;-82
2023/08/08 10:37:17;;;;;;;0.10;0.10;;;;;;;26.29;54.42;98546.28;4846239;29;20141;-80
2023/08/08 10:39:57;;;;;;;0.10;0.10;;;;;;;26.09;55.01;98548.19;4832525;29;20049;-83
2023/08/08 10:42:31;;;;;;;0.20;0.20;;;;;;;25.92;55.78;98554.91;4833157;29;20050;-81
2023/08/08 10:44:59;;;;;;;0.20;0.20;;;;;;;25.83;55.75;98559.78;4848563;29;20160;-82
2023/08/08 10:47:34;;;;;;;0.10;0.10;;;;;;;25.78;56.38;98557.28;4852742;29;20560;-80
2023/08/08 10:50:11;;;;;;;0.20;0.20;;;;;;;25.84;56.48;98563.34;4847701;29;20060;-81
2023/08/08 10:52:54;;;;;;;0.10;0.10;;;;;;;25.90;56.75;98562.78;4845770;29;20128;-80
2023/08/08 10:55:27;;;;;;;0.10;0.10;;;;;;;25.93;56.98;98569.53;4846903;29;20058;-83
2023/08/08 10:58:19;;;;;;;0.20;0.20;;;;;;;25.99;57.04;98570.06;4844200;29;20060;-83
2023/08/08 11:00:52;;;;;;;0.20;0.20;;;;;;;26.06;56.99;98570.25;4835857;29;20056;-82
2023/08/08 11:03:20;;;;;;;0.20;0.20;;;;;;;26.07;56.78;98569.06;4835143;29;20061;-83
2023/08/08 11:05:48;;;;;;;0.20;0.20;;;;;;;26.00;57.11;98578.00;4845258;29;20058;-80
2023/08/08 11:08:21;;;;;;;0.20;0.20;;;;;;;25.90;57.90;98568.28;4847266;29;20089;-82
2023/08/08 11:10:51;;;;;;;0.20;0.20;;;;;;;25.94;57.49;98563.63;4850256;29;20477;-82
2023/08/08 11:13:19;;;;;;;0.20;0.20;;;;;;;26.06;56.86;98571.03;4846884;29;20050;-83
2023/08/08 11:15:47;;;;;;;0.20;0.20;;;;;;;26.26;56.78;98577.44;4843442;29;20081;-82
2023/08/08 11:18:15;;;;;;;0.20;0.20;;;;;;;26.26;56.25;98566.38;4845347;29;20671;-82
2023/08/08 11:20:43;;;;;;;0.20;0.20;;;;;;;26.26;56.02;98558.09;4851777;29;20514;-82
2023/08/08 11:23:13;;;;;;;0.20;0.20;;;;;;;26.56;55.27;98582.47;4826687;29;20062;-82
2023/08/08 11:25:43;;;;;;;0.20;0.20;;;;;;;26.70;55.00;98568.97;4834576;29;20060;-83
2023/08/08 11:28:12;;;;;;;0.20;0.20;;;;;;;27.08;53.99;98572.91;4855454;29;20083;-83
2023/08/08 11:30:43;;;;;;;0.20;0.20;;;;;;;27.80;51.81;98571.50;4854691;29;20560;-82
2023/08/08 11:33:14;;;;;;;0.30;0.30;;;;;;;28.97;49.18;98577.25;4849274;29;20056;-82
2023/08/08 11:35:46;;;;;;;0.50;0.50;;;;;;;31.19;45.10;98576.31;4854278;29;20054;-83
2023/08/08 11:38:32;;;;;;;0.40;0.40;;;;;;;33.03;41.66;98580.75;4848650;29;20050;-82
2023/08/08 11:41:01;;;;;;;0.20;0.20;;;;;;;33.57;39.41;98569.28;4827177;29;20418;-83
2023/08/08 11:43:31;;;;;;;0.40;0.40;;;;;;;34.08;38.77;98582.53;4821806;29;20053;-82
2023/08/08 11:46:03;;;;;;;0.40;0.40;;;;;;;33.93;38.37;98583.03;4849893;29;20144;-83